GQPA/ATR METAR and TAF weather

Enter ICAO airport designator
Station Type Date Time Source
GQPA METAR 2018/12/12 18:00 UTC NOAA

GQPA 121800Z 06010KT 8000 NSC 30/M04 Q1017


Station Type Date Time Source
GQPA Decoded METAR 2018/12/12 18:00 UTC NOAA

Atar, Mauritania (GQPA) 20-31N 013-04W 224M
Dec 12, 2018 - 01:00 PM EST / 2018.12.12 1800 UTC
Wind: from the ENE (060 degrees) at 12 MPH (10 KT):0
Visibility: 4 mile(s):0
Temperature: 86 F (30 C)
Dew Point: 24 F (-4 C)
Relative Humidity: 10%
Pressure (altimeter): 30.03 in. Hg (1017 hPa)
ob: GQPA 121800Z 06010KT 8000 NSC 30/M04 Q1017
cycle: 18

Station Type Date Time Source
GQPA TAF UTC NOAA

Error!


Example: see airport list